METARS
Date METAR Location Area
03/03/2015 LG1B 031430Z 31505KT 19/06 Q1017 Arsakeio Athens
03/03/2015 LGY7 031530Z 24803KT 18/12 Q1018 Aegina Attica
03/03/2015 LG5C 031530Z 27003KT 20/09 Q1016 Alimos Attica
03/03/2015 LGH5 031530Z 24801KT 20/10 Q1017 Ampelokipoi Attica
03/03/2015 LGS5 031530Z 24803KT 19/11 Q1017 Anavissos Attica
03/03/2015 LGO0 031530Z 24810KT 18/09 Q1018 Ano Liosia Attica
03/03/2015 LG9B 031530Z 33805KT 20/10 Q1017 Aspropirgos Attica
03/03/2015 LGB9 031530Z 27003KT 20/09 Q1018 Athens - Gazi Attica
03/03/2015 LGL5 031530Z 00002KT 18/07 Q1021 Ekali Attica
03/03/2015 LGS3 031530Z 29302KT 21/09 Q1017 Faliro Attica
03/03/2015 LGM3 031530Z 02301KT 19/12 Q1018 Hydra Attica
16/02/2015 LGO2 161200Z 06803KT 03/02 Q1022 Imittos Attica
03/03/2015 LGT8 031530Z 00000KT 15/07 Q1018 Ippokratios Attica
03/03/2015 LG99 031530Z 02303KT 17/09 Q1018 Kantza Attica
03/03/2015 LG13 031600Z 00000KT 17/08 Q1019 Kifissia Attica
03/03/2015 LG3C 031530Z 27003KT 19/08 Q1016 Korydallos Attica
03/03/2015 LGD6 031530Z 29305KT 19/12 Q1016 Lavrio Attica
03/03/2015 LGK0 031530Z 29302KT 19/08 Q1018 Marousi Attica
03/03/2015 LG00 031610Z 00000KT 16/07 Q1017 Marousi (Anavrita) Attica
03/03/2015 LGR0 031530Z 31504KT 20/09 Q1017 Nea Smirni Attica
03/03/2015 LGM8 031530Z 29305KT 20/09 Q1019 Neos Kosmos Attica
03/03/2015 LGK3 031530Z 31503KT 10/05 Q1019 Parnitha 1230 EAA Attica
03/03/2015 LGT6 031530Z 31503KT 20/08 Q1018 Patissia Attica
03/03/2015 LG67 031600Z 2922592G9558KT 154/91 Q10186 Penteli Attica
03/03/2015 LGX9 031530Z 27000KT 18/08 Q1016 Penteli Attica
03/03/2015 LGU0 031530Z 29303KT 19/09 Q1018 Peristeri Attica
03/03/2015 LGY6 031530Z 06810KT 17/10 Q1017 Porto Rafti Attica
03/03/2015 LG96 031530Z 29302KT 20/10 Q1018 Psychico Attica
03/03/2015 LGZ0 031530Z 04504KT 16/10 Q1017 Rafina Attica
03/03/2015 LG2B 031530Z 27009KT 20/08 Q1017 SEF Attica
03/03/2015 LGG2 031530Z 06808KT 16/10 Q1017 Spata Attica
03/03/2015 LGS6 031530Z 15803KT 19/12 Q1017 Spetses Attica
03/03/2015 LG3B 031530Z 00000KT 18/09 Q1019 Tatoi Attica
03/03/2015 LGZ2 031530Z 27007KT 18/10 Q1017 Vari Attica
03/03/2015 LGR6 031530Z 24809KT 14/09 Q1018 Vilia Attica
03/03/2015 LG74 030600Z 00000KT 129/82 Q10151 Ymittos Attica
03/03/2015 LGG1 031600Z 1352592G7830KT 169/93 Q147 Kalivia Thorikou Attica E
03/03/2015 LG45 031530Z 06807KT 18/11 Q1020 Markopoulo Attica E
03/03/2015 LG72 031600Z 00000KT 172/81 Q10164 Keratea Attica SE
03/03/2015 LGW4 031530Z 11303KT 14/11 Q1012 Ag. Ioannis Sfakion Crete
03/03/2015 LGJ9 031530Z 29313KT 17/12 Q1018 Aghios Nikolaos Crete
03/03/2015 LGT4 031530Z 29302KT 17/11 Q1019 Alikianos Crete
03/03/2015 LGB6 031530Z 27008KT 11/09 Q1018 Anogeia Crete
03/03/2015 LGZ6 031530Z 33803KT 13/08 Q1021 Askyfou Crete
03/03/2015 LG25 031530Z 22507KT 16/12 Q1019 Chania Crete
03/03/2015 LGN3 031530Z 27006KT 18/12 Q1020 Chania Center Crete
03/03/2015 LG61 031530Z 33811KT 17/13 Q1018 Cost - Irakleio Crete
03/03/2015 LG2C 031530Z 22503KT 12/10 Q1007 Elos Crete
03/03/2015 LGL9 031530Z 24809KT 16/13 Q1019 Falasarna Crete
03/03/2015 LG9A 031530Z 29310KT 15/12 Q1018 Finokalia - Lasithi Crete
03/03/2015 LGL1 031530Z 33807KT 15/09 Q1018 Fourfouras Crete
03/03/2015 LGD4 031530Z 00010KT 16/11 Q1019 Fragmapotamon - Rethymno Crete
03/03/2015 LG30 031530Z 31505KT 18/12 Q1019 Heraklion - Knossos Crete
03/03/2015 LG95 031530Z 20300KT 18/14 Q1019 Ierapetra Crete
03/03/2015 LGP0 031530Z 22504KT 18/13 Q1019 Lentas Hrakleion Crete
16/02/2015 LGD7 162200Z 29304KT 07/05 Q1020 Metaxochori - Heraklion Crete
03/03/2015 LGI2 031530Z 24807KT 16/14 Q1019 Mires Crete
03/03/2015 LG36 031530Z 29310KT 16/12 Q1019 Paleochora Crete
03/03/2015 LG8A 031530Z 24803KT 15/13 Q1019 Pirathi Heraklion Crete
03/03/2015 LG58 031530Z 29315KT 17/13 Q1017 Rethymno Crete
26/02/2015 LGT2 260800Z 13506KT 18/12 Q1017 Rethymno - Plakia Crete
03/03/2015 LGY1 031530Z 31500KT 14/09 Q1020 Samaria Crete
03/03/2015 LGB4 031530Z 31503KT 07/05 Q1023 Samaria Crete
28/02/2015 LGM2 280730Z 24803KT 17/09 Q1013 Sitia Crete
03/03/2015 LG75 031530Z 04506KT 15/11 Q1020 Spili - Rethymnon Crete
03/03/2015 LG8B 031530Z 31506KT 17/10 Q1019 Stavrakia - Heraclion Crete
03/03/2015 LG50 031530Z 00001KT 11/09 Q1019 Tzermiado Lasithi Crete
03/03/2015 LG7B 031530Z 27006KT 15/13 Q1020 Vagionia - Heraklion Crete
03/03/2015 LG70 031530Z 31505KT 19/10 Q1018 Vrysses Crete
03/03/2015 LGT5 031530Z 27003KT 18/12 Q1018 Amorgos Cyclades
03/03/2015 LGN6 031530Z 02305KT 18/08 Q1018 Andros Cyclades
03/03/2015 LGS7 030930Z 33807KT 17/11 Q1017 Donoussa Cyclades
03/03/2015 LGI0 031530Z 29303KT 17/12 Q1018 Ios Cyclades
02/03/2015 LGP2 020530Z 22507KT 08/07 Q1022 Ioulida - Kea Cyclades
03/03/2015 LGP5 031530Z 24800KT 18/13 Q1018 Iraklia Cyclades
03/03/2015 LGE3 031530Z 27002KT 17/11 Q1018 Kea Cyclades
03/03/2015 LGX8 031530Z 27005KT 18/12 Q1019 Koufonissia Cyclades
03/03/2015 LGS0 031530Z 27005KT 17/13 Q1020 Milos Cyclades
03/03/2015 LG66 031530Z 24803KT 18/13 Q1018 Mykonos Cyclades
03/03/2015 LGM0 031530Z 31503KT 18/11 Q1019 Naxos Cyclades
03/03/2015 LGV3 031530Z 22504KT 11/08 Q1020 Naxos - Apiranthos Cyclades
03/03/2015 LGT0 031530Z 27005KT 17/09 Q1019 Naxos - Apollonas Cyclades
03/03/2015 LGU1 031530Z 27002KT 16/09 Q1019 Naxos - Damarionas Cyclades
03/03/2015 LGU2 031530Z 22503KT 12/09 Q1019 Naxos - Koronos Cyclades
03/03/2015 LGN7 031530Z 31502KT 15/10 Q1018 Naxos - Kynidaros Cyclades
03/03/2015 LGW1 031530Z 27002KT 18/10 Q1019 Naxos - Melanes Cyclades
03/03/2015 LGO7 031530Z 31500KT 20/14 Q1019 Naxos - Mikri Vigla Cyclades
26/02/2015 LG02 261030Z 13511KT 18/12 Q1019 Paros Cyclades
03/03/2015 LGX5 031530Z 20304KT 16/13 Q1017 Santorini Cyclades
03/03/2015 LGX7 031530Z 27007KT 16/11 Q1019 Schinoussa Cyclades
03/03/2015 LGB8 031430Z 27001KT 18/13 Q1018 Tinos NOA Cyclades
03/03/2015 LGAB 031530Z 27005KT 13/09 Q1017 Emponas - Rhodes Dodecanese
03/03/2015 LGG6 031530Z 27004KT 16/11 Q1019 Kalymnos Dodecanese
03/03/2015 LGAC 031530Z 31508KT 17/12 Q1016 Kattavia - Rhodes Dodecanese
03/03/2015 LGAA 031530Z 31508KT 16/10 Q1018 Lindos - Rhodes Dodecanese
03/03/2015 LG65 031530Z 27007KT 17/12 Q1018 Patmos Dodecanese
03/03/2015 LGS9 031530Z 27000KT 14/12 Q1019 Rhodes Dodecanese
03/03/2015 LGM5 031530Z 29311KT 17/13 Q1017 Kasos Dodecanisa
03/03/2015 LGX1 031530Z 29303KT 16/11 Q1018 Kos Dodekanissa
03/03/2015 LG4A 031530Z 27002KT 16/09 Q1017 Chios East Aegean
03/03/2015 LG6C 031530Z 24803KT 16/10 Q1018 Chios Town East Aegean
03/03/2015 LGT1 031530Z 31508KT 17/09 Q1017 Fournoi East Aegean
03/03/2015 LGI9 031530Z 29301KT 13/07 Q1015 Ikaria East Aegean
03/03/2015 LGI5 031530Z 31501KT 16/09 Q1016 Lemnos East Aegean
03/03/2015 LGI6 031530Z 29305KT 16/11 Q1017 Lesvos East Aegean
03/03/2015 LGJ3 031530Z 00005KT 16/11 Q1019 Lesvos - Thermi East Aegean
20/02/2015 LGZ7 201530Z 33807KT 18/07 Q1018 Mantamados East Aegean
03/03/2015 LGY5 031530Z 29303KT 14/09 Q1019 Molyvos East Aegean
03/03/2015 LGF1 031530Z 27000KT 17/10 Q1017 Samos East Aegean
03/03/2015 LGW7 031530Z 13506KT 15/11 Q1018 Akrotirio Paksimada Evia
03/03/2015 LGO3 031530Z 33809KT 16/05 Q1017 Chalkida Evia
03/03/2015 LGR5 031430Z 31510KT 14/09 Q1017 Kavodoro Evia
09/02/2015 LGY0 090700Z 11300KT 09/05 Q1034 Krieza Evia
03/03/2015 LGX0 031530Z 31502KT 14/05 Q1020 Kymi Evia
25/02/2015 LGT7 251000Z 27004KT 09/07 Q1011 Setta Evia
03/03/2015 LG81 031530Z 31501KT 15/06 Q1017 Steni Evia
02/03/2015 LGC4 022230Z 22513KT 14/09 Q1015 Styra Evia
03/03/2015 LGD3 031530Z 06804KT 15/10 Q1019 Zarakes Evia
03/03/2015 LGP6 031530Z 24803KT 14/07 Q1020 Agia Kyriaki Ioanninon Hepirus
03/03/2015 LGO1 031530Z 31503KT 14/01 Q1020 Aridaia Hepirus
27/02/2015 LGD2 271200Z 13501KT 12/09 Q1005 Arta - Kompoti Hepirus
03/03/2015 LG38 031530Z 18002KT 17/13 Q1020 Arta - Vlacherna Hepirus
03/03/2015 LGE4 031230Z 31504KT 12/08 Q1019 Aspraggeloi Hepirus
03/03/2015 LGI3 031530Z 27002KT 15/06 Q1019 Derviziana Hepirus
03/03/2015 LGP4 031530Z 27002KT 15/08 Q1019 Dodoni Hepirus
02/03/2015 LGL8 021430Z 02304KT 24/07 Q1015 Grammos Hepirus
03/03/2015 LG43 031430Z 27003KT 18/12 Q1019 Igoumenitsa Hepirus
03/03/2015 LG49 031530Z 22503KT 15/08 Q1018 Ioannina Anatoli Hepirus
03/03/2015 LGK1 031530Z 27000KT 16/13 Q1019 Kanali, Preveza Hepirus
03/03/2015 LGE0 031530Z 22502KT 12/10 Q1021 Katarraktis - Arta Hepirus
03/03/2015 LGO5 031530Z 24805KT 12/03 Q1019 Kerasovo Konitsa Hepirus
03/03/2015 LG3A 031430Z 29303KT 18/04 Q1019 Konitsa Hepirus
03/03/2015 LGO8 031430Z 13500KT 09/04 Q1019 Metsovo Hepirus
03/03/2015 LGK6 031530Z 27003KT 11/01 Q1021 Papigo Hepirus
03/03/2015 LGF6 031230Z 00010KT 14/09 Q1019 Paramythia Hepirus
03/03/2015 LGK9 031530Z 27005KT 18/13 Q1022 Parga Hepirus
03/03/2015 LGK7 031330Z 22504KT 15/11 Q1020 Pesta Hepirus
03/03/2015 LGY9 031430Z 02303KT 10/01 Q1026 Plikati Ioanninon Hepirus
03/03/2015 LGP1 031530Z 02302KT 13/07 Q1021 Pramanta Hepirus
03/03/2015 LGK2 031030Z 13506KT 11/08 Q1019 Theodoriana, Arta Hepirus
03/03/2015 LGD0 031530Z 20302KT 12/06 Q1019 Tristeno - Ioannina Hepirus
03/03/2015 LGM4 031530Z 31502KT 15/08 Q1019 Tyria Hepirus
03/03/2015 LGR8 031530Z 15801KT 11/10 Q1021 Vourgareli Artas Hepirus
03/03/2015 LGN9 031430Z 04501KT 09/03 Q1018 Vovoussa Hepirus
03/03/2015 LGN0 031530Z 24803KT 15/10 Q1020 Zitsa Hepirus
03/03/2015 LGJ2 031530Z 33807KT 17/12 Q1020 Corfu - Gouvia Ionio
03/03/2015 LGB0 031530Z 29304KT 18/12 Q1020 Ithaki Ionio
03/03/2015 LGI7 031530Z 29305KT 18/13 Q1021 Lefkada Ionio
03/03/2015 LGN1 031530Z 31503KT 16/13 Q1019 Paxoi Ionio
03/03/2015 LGN4 031530Z 00000KT 18/14 Q1020 Zakynthos Ionio
03/03/2015 LGG9 031530Z 02303KT 10/03 Q1018 Amynteo Macedonia
03/03/2015 LG33 031530Z 33805KT 11/02 Q1018 Chalkidiki - Polygyros Macedonia
28/02/2015 LGJ1 281130Z 00000KT 14/11 Q1015 Chalkidiki - Stratoni Macedonia
03/03/2015 LGZ5 031030Z 31509KT 15/10 Q1014 Didymoteicho Macedonia
03/03/2015 LG55 031530Z 15804KT 14/09 Q1018 Dion Macedonia
03/03/2015 LGU8 031530Z 29307KT 17/03 Q1016 Doxato - Drama Macedonia
03/03/2015 LGH3 031550Z 31406KT 16/01 Q1017 Drama Macedonia
03/03/2015 LGH6 031530Z 27009KT 16/02 Q1016 Drama 2 Macedonia
03/03/2015 LGY3 031530Z 24803KT 17/03 Q1017 Eleutheroupoli Macedonia
27/02/2015 LGJ6 272050Z 15916G27KT 02/02 Q1009 Falakro Macedonia
03/03/2015 LG63 031530Z 33804KT 10/04 Q1022 Florina Macedonia
03/03/2015 LGZ8 031530Z 31515KT 16/01 Q1017 Fotolivos Macedonia
02/03/2015 LG73 020100Z 18001KT 07/07 Q1017 Giannitsa Macedonia
03/03/2015 LGF2 031530Z 27003KT 17/03 Q1017 Grevena Macedonia
03/03/2015 LGO4 031530Z 29301KT 11/05 Q1020 Hmathia - Rizomata Macedonia
03/03/2015 LG93 031430Z 29317KT M02/M03 Q1022 Kaimaktsalan Macedonia
03/03/2015 LGO9 031530Z 33807KT 17/07 Q1017 Kassandreia (Xalkidiki) Macedonia
03/03/2015 LG27 031550Z 27100KT 15/09 Q1018 Kavala - Dexameni Macedonia
03/03/2015 LG42 031530Z 27012KT 13/01 Q1018 Kilkis Macedonia
03/03/2015 LGW8 031530Z 33809KT 14/01 Q1019 Kimisi Macedonia
03/03/2015 LGJ4 031430Z 00009KT 12/06 Q1020 Kozani - Ardassa Macedonia
27/02/2015 LGP3 271500Z 09007KT 02/02 Q1009 Lailias - Serres Macedonia
03/03/2015 LGZ9 031530Z 31503KT 12/04 Q1019 Mavropigi Macedonia
03/03/2015 LG40 031530Z 00001KT 13/03 Q1020 Naousa Macedonia
03/03/2015 LG4B 031530Z 24803KT 16/09 Q1017 Nea Peramos Macedonia
03/03/2015 LGZ4 031530Z 33804KT 17/05 Q1017 Neos Marmaras Macedonia
03/03/2015 LG48 031530Z 27008KT 12/M02 Q1015 Nevrokopi Drama Macedonia
03/03/2015 LGS4 031530Z 33805KT 11/03 Q1018 Notio Pedio - Eordea Macedonia
03/03/2015 LGW0 031530Z 27002KT -RA 18/02 Q1017 Paranesti Macedonia
03/03/2015 LG26 031530Z 33805KT 11/04 Q1018 Ptolemaida Macedonia
03/03/2015 LG87 031530Z 29303KT 05/01 Q1020 Seli Ski Center Macedonia
03/03/2015 LGW6 031530Z 31510KT 16/M01 Q1019 Serres Macedonia
03/03/2015 LGD9 031530Z 29301KT 15/03 Q1019 Serres - Kerkini Macedonia
03/03/2015 LG14 030600Z 00000G31104KT 71/60 Q10129 Serres - Proti Macedonia
03/03/2015 LG5B 031530Z 24802KT 16/08 Q1017 Thasos Macedonia
07/02/2015 LGY8 071419Z 31505KT 9999 SCT036 10/00 Q1010 Thassos Macedonia
03/03/2015 LGR9 031530Z 31508KT 15/04 Q1019 Thessaloniki Macedonia
03/03/2015 LGF0 031530Z 06801KT 10/05 Q1018 Variko Macedonia
03/03/2015 LG82 031430Z 27013G24KT 04/M01 Q1021 Vassilitsa Macedonia
03/03/2015 LGC2 031530Z 29306KT 14/07 Q1016 Vatopedi - Athos Macedonia
03/03/2015 LGE9 030230Z 20304KT 08/04 Q1014 Vegoritida Macedonia
03/03/2015 LGE5 031530Z 31504KT 16/06 Q1018 Veroia Macedonia
03/03/2015 LG98 031430Z 02306KT 07/03 Q1018 Vlasti - Kozani Macedonia
03/03/2015 LGF5 031601Z 23900KT 10/02 Q1018 Vounochori - Kavala Macedonia
26/02/2015 LGU5 261330Z 06805KT -RA 13/11 Q1014 Agioi Theodoroi Peloponissos
03/03/2015 LGU7 031530Z 29301KT 12/09 Q1020 Alagonia - Messinia Peloponissos
03/03/2015 LG52 031530Z 00002KT 18/13 Q1019 Amaliada Peloponissos
03/03/2015 LG77 031530Z 00003KT 12/10 Q1021 Andritsaina Peloponissos
03/03/2015 LGU6 031530Z 31502KT 18/12 Q1021 Arfara - Messinia Peloponissos
03/03/2015 LGT3 031530Z 24805KT 21/06 Q1017 Argos Peloponissos
03/03/2015 LGV0 030930Z 33809KT 15/12 Q1016 Derveni Peloponissos
28/02/2015 LGK4 280730Z 15801KT -RA 03/02 Q1021 Elati Peloponissos
03/03/2015 LGC3 031130Z 29304KT 14/10 Q1018 Foloi - Ilia Peloponissos
03/03/2015 LGX6 031530Z 29308KT 19/09 Q1019 Geraki Peloponissos
03/03/2015 LGB7 031530Z 33802KT 18/13 Q1020 Ilia - Vartholomio Peloponissos
03/03/2015 LG85 031530Z 33818KT 18/12 Q1016 Isthmos Peloponissos
03/03/2015 LG6A 031430Z 15803KT 17/13 Q1020 Kalamata Peloponissos
03/03/2015 LGV7 031530Z 29302KT 12/08 Q1021 Kalavryta Peloponissos
03/03/2015 LGZ3 031530Z 18007KT 17/13 Q1020 Kardamyli Peloponissos
27/02/2015 LGJ5 271930Z 04504KT 11/09 Q1006 Katakolo Peloponissos
03/03/2015 LGP7 031530Z 31503KT 12/09 Q1021 Kato Vlassia Peloponissos
27/02/2015 LGB2 272000Z 20301KT 27/23 Q1011 Katoachaia Peloponissos
03/03/2015 LGB5 030630Z 27010KT 13/10 Q1018 Kavomalias Peloponissos
03/03/2015 LGM7 031530Z 15805KT 17/09 Q1019 Kranidi Peloponissos
03/03/2015 LGV1 031530Z 27003KT 17/13 Q1021 Kyparissia Peloponissos
03/03/2015 LGW9 031530Z 18001KT 11/09 Q1021 Lagadia Peloponissos
03/03/2015 LG0A 031530Z 20303KT 12/07 Q1022 Lampia - Ilia Peloponissos
03/03/2015 LG92 031530Z 00003KT 17/13 Q1018 Lappa-Larissos-Achaia Peloponissos
03/03/2015 LG4C 031530Z 33804KT 13/06 Q1019 Levidi Peloponissos
07/02/2015 LG91 070630Z 00000KT 21/15 Q1012 Lousika-Olenias-Achaia Peloponissos
03/03/2015 LGV4 031530Z 27003KT 12/08 Q1019 Lykochia Peloponissos
03/03/2015 LGG5 031530Z 31503KT 15/11 Q1020 Megalopoli Peloponissos
05/02/2015 LGV2 052030Z 09006KT 15/06 Q1009 Messinia - Kopanaki Peloponissos
03/03/2015 LGF8 031530Z 31510KT 20/09 Q1017 Molaoi Peloponissos
03/03/2015 LG56 031530Z 24805KT 20/10 Q1017 Monemvasia Peloponissos
03/03/2015 LGE1 031530Z 27008KT 19/07 Q1016 Nemea Peloponissos
03/03/2015 LGD5 031530Z 31500KT 18/12 Q1020 Oleni - Ilia Peloponissos
03/03/2015 LGB3 031530Z 18003KT 17/14 Q1020 Olympia Peloponissos
03/03/2015 LGV6 031530Z 27010KT 04/04 Q1023 Panachaiko Oros Peloponissos
03/03/2015 LGZ1 031530Z 22506KT 17/12 Q1018 Patra Peloponissos
03/03/2015 LG71 031600Z 225864G3456KT 181/125 Q10204 Patra - Drosia Peloponissos
03/03/2015 LG84 031530Z 24806KT 17/14 Q1020 Patra - Port Peloponissos
03/03/2015 LG59 031530Z 24803KT 18/14 Q1019 Pirgos Peloponissos
28/02/2015 LGH8 281230Z 27009KT 15/12 Q1013 Rio Peloponissos
03/03/2015 LGT9 031530Z 22503KT 16/11 Q1019 Romanos - Patra Peloponissos
03/03/2015 LGA0 031530Z 24806KT 17/13 Q1018 Sagaiika Peloponissos
03/03/2015 LGF7 031530Z 33802KT 19/10 Q1018 Sparti Peloponissos
03/03/2015 LGS2 031530Z 02301KT 10/08 Q1022 Stemnitsa Peloponissos
03/03/2015 LGR1 031530Z 27010G23KT 11/04 Q1017 Trikala Korinthias Peloponissos
03/03/2015 LG83 031530Z 27003KT 15/09 Q1019 Tripoli Peloponissos
03/03/2015 LGU9 031530Z 24802KT 11/07 Q1020 Vytina Peloponissos
03/03/2015 LG86 031530Z 24803KT 18/14 Q1020 Zaxaro Peloponissos
03/03/2015 LGN2 031530Z 29307KT 15/10 Q1020 Alonissos Sporades
01/03/2015 LGI1 010000Z 33804KT -RA 12/10 Q1016 Skyros Sporades
03/03/2015 LGH9 031530Z 29301KT 18/12 Q1021 Agrinio Sterea Ellada
03/03/2015 LGC7 031530Z 09002KT 17/14 Q1020 Aitoliko Sterea Ellada
03/03/2015 LG29 031530Z 24803KT 17/03 Q1017 Amfiklia Sterea Ellada
03/03/2015 LGG8 031530Z 13503KT 16/10 Q1020 Antikira Sterea Ellada
03/03/2015 LG97 031610Z 00000KT 12/06 Q1019 Arachova Sterea Ellada
03/03/2015 LGC5 031530Z 27004KT 12/06 Q1021 Arahova Sterea Ellada
03/03/2015 LGH0 031530Z 33808KT 17/06 Q1016 Avlida Sterea Ellada
03/03/2015 LGR2 031530Z 27014KT 15/08 Q1018 Dam of Mornos Sterea Ellada
03/03/2015 LGR3 031530Z 24801KT 15/06 Q1019 Diakopi of Lidoriki Sterea Ellada
03/03/2015 LGW5 031530Z 29303KT 18/04 Q1017 Domokos Sterea Ellada
14/02/2015 LG21 141323Z 24804KT 29/15 Q1014 Evia - Chalkida Sterea Ellada
03/03/2015 LGY4 031530Z 29316G32KT 17/11 Q1018 Galaxidi Sterea Ellada
03/03/2015 LGC8 031600Z 247864G4320KT 189/133 Q10191 Gavalou - Aitol/nia Sterea Ellada
03/03/2015 LGJ7 031430Z 20311KT 17/09 Q1019 Kaparelli Sterea Ellada
03/03/2015 LGC9 031530Z 31502KT 12/08 Q1020 Karpenisi Sterea Ellada
03/03/2015 LGP9 031530Z 13504KT 16/09 Q1015 Kleidi Viotias Sterea Ellada
03/03/2015 LGR4 031530Z 27001KT 12/05 Q1020 Koniakos of Lidoriki Sterea Ellada
03/03/2015 LG5A 031530Z 04509KT 18/10 Q1016 Kopaida Sterea Ellada
03/03/2015 LGV9 031430Z 24808KT 21/06 Q1016 Lamia Sterea Ellada
03/03/2015 LGJ8 031430Z 00003KT 21/08 Q1015 Lefkochori Sterea Ellada
02/03/2015 LGI8 020630Z 29301KT 05/04 Q1020 Livadeia Sterea Ellada
02/03/2015 LGE7 020700Z 00000KT 10/07 Q1017 Makrakomi Sterea Ellada
03/03/2015 LGA6 031530Z 22503KT 10/03 Q1018 Mavrolithari - Vardousia Sterea Ellada
26/02/2015 LGK8 261030Z 09007KT 05/02 Q1016 Myriki Sterea Ellada
03/03/2015 LGG4 031530Z 31503KT 10/07 Q1020 Orini Nafpaktia Sterea Ellada
03/03/2015 LGA4 031500Z 00000KT 00/00 Q1018 Parnassos Sterea Ellada
03/03/2015 LGF9 031530Z 00000KT 04/00 Q1021 Parnassos1950 Sterea Ellada
03/03/2015 LGL0 031230Z 06804KT 21/05 Q1016 Polydroso Sterea Ellada
07/02/2015 LGR7 071230Z 04508KT 11/09 Q1025 Prasino - Viotia Sterea Ellada
03/03/2015 LG69 031530Z 00005KT 17/08 Q1017 Tanagra Sterea Ellada
03/03/2015 LGO6 031530Z 04509KT 16/08 Q1018 Theologos Sterea Ellada
03/03/2015 LG94 031530Z 00000KT 116/40 Q10195 Hortiatis Thes/niki
03/03/2015 LG15 031612Z 00110KT 16/M08 Q1023 Kamara Thes/niki Thes/niki
03/03/2015 LGA5 031530Z 31506KT 14/02 Q1019 Lagadas Thes/niki
03/03/2015 LG7C 031530Z 33808KT 15/02 Q1019 Nea Michaniona Thes/niki
03/03/2015 LG8C 030930Z 33813G24KT 16/08 Q1016 Sindos Thes/niki
24/02/2015 LG11 240730Z 12901KT 10/06 Q1006 West Thes/niki Thes/niki
02/03/2015 LGV5 020930Z 09003KT 10/09 Q1021 Tsamantas Thesprotia
03/03/2015 LGL4 031530Z 15803KT 10/04 Q1020 Gardiki Thessalia
03/03/2015 LGW3 031530Z 33804KT 20/04 Q1015 Kalabaka Thessalia
03/03/2015 LG2A 031530Z 27008KT 20/07 Q1016 Karditsa Thessalia
03/03/2015 LGU3 031410Z 225864G3456KT 187/84 Q10147 Larissa Thessalia
02/03/2015 LGL6 021430Z 20303KT 18/07 Q1014 Larissa Thessalia
28/02/2015 LGL7 282300Z 24812KT 16/05 Q1014 Limni Plastira Thessalia
28/02/2015 LG6B 281230Z 31503KT 12/09 Q1011 Moni Paou Thessalia
26/02/2015 LGU4 260700Z 29304KT 04/M07 Q1013 Olympos Thessalia
03/03/2015 LG7A 031600Z 202864G3456KT 171/77 Q10177 Pedio Areos Volou Thessalia
03/03/2015 LGE2 031430Z 22501KT 11/02 Q1017 Pertouli Thessalia
03/03/2015 LGY2 031530Z 15805KT 14/06 Q1017 Portaria - Pelio Thessalia
01/03/2015 LG80 010330Z 13501KT 11/10 Q1017 Skopelos - Sporades Thessalia
02/03/2015 LG24 021130Z 18006KT 15/10 Q1017 Sporades - Skiathos Thessalia
03/03/2015 LG57 031430Z 29305KT 22/03 Q1015 Trikala Thessalia
03/03/2015 LG51 031530Z 09002KT 18/11 Q1016 Volos Thessalia
03/03/2015 LGG3 031530Z 29303KT 12/05 Q1021 Zagora EAA Thessalia
03/03/2015 LGD8 031530Z 20300KT 11/10 Q1018 Alexandroupolis Thraki
03/03/2015 LGM9 031530Z 11300KT 14/10 Q1016 Imeros Thraki
09/02/2015 LG35 091750Z 33604KT 23/15 Q1013 Komotini Thraki
03/03/2015 LGL2 031530Z 02303KT 14/06 Q1018 Metaxades - Evros Thraki
03/03/2015 LG31 031530Z 33803KT 14/05 Q1016 Orestiada Thraki
03/03/2015 LGC1 031530Z 00002KT 14/10 Q1018 Samothraki Thraki
03/03/2015 LGC6 031530Z 06803KT 14/11 Q1017 Xanthi Thraki
www.meteorologia.gr